createdAt,value
2022-08-17T00:02:26.304Z,8.10
2022-08-17T00:04:55.363Z,8.53
2022-08-17T00:07:22.977Z,8.23
2022-08-17T00:09:49.764Z,7.80
2022-08-17T00:12:41.176Z,7.13
2022-08-17T00:15:04.502Z,6.97
2022-08-17T00:17:31.280Z,8.00
2022-08-17T00:19:57.996Z,8.13
2022-08-17T00:22:31.592Z,7.53
2022-08-17T00:25:03.615Z,8.63
2022-08-17T00:27:30.342Z,9.10
2022-08-17T00:29:57.206Z,9.27
2022-08-17T00:33:12.526Z,8.10
2022-08-17T00:35:13.997Z,9.20
2022-08-17T00:37:40.791Z,8.63
2022-08-17T00:40:10.018Z,8.23
2022-08-17T00:42:37.170Z,10.27
2022-08-17T00:45:06.185Z,7.70
2022-08-17T00:47:32.937Z,8.17
2022-08-17T00:49:59.799Z,9.37
2022-08-17T00:52:33.169Z,9.63
2022-08-17T00:55:00.909Z,11.90
2022-08-17T00:57:42.452Z,8.97
2022-08-17T01:00:16.917Z,10.57
2022-08-17T01:02:46.502Z,8.73
2022-08-17T01:05:19.032Z,8.27
2022-08-17T01:07:49.331Z,13.60
2022-08-17T01:10:59.823Z,10.93
2022-08-17T01:13:07.011Z,10.10
2022-08-17T01:15:39.868Z,9.33
2022-08-17T01:18:09.553Z,8.37
2022-08-17T01:20:47.834Z,9.30
2022-08-17T01:23:19.895Z,9.70
2022-08-17T01:25:54.436Z,9.57
2022-08-17T01:28:52.581Z,10.27
2022-08-17T01:31:10.089Z,9.90
2022-08-17T01:33:37.263Z,10.53
2022-08-17T01:36:07.228Z,10.53
2022-08-17T01:38:36.060Z,9.80
2022-08-17T01:41:12.410Z,9.53
2022-08-17T01:44:01.920Z,11.07
2022-08-17T01:46:33.407Z,9.30
2022-08-17T01:49:01.164Z,10.17
2022-08-17T01:51:32.718Z,10.80
2022-08-17T01:54:05.234Z,14.33
2022-08-17T01:56:34.069Z,10.47
2022-08-17T01:59:01.053Z,9.17
2022-08-17T02:01:31.541Z,10.80
2022-08-17T02:04:01.110Z,10.30
2022-08-17T02:06:31.658Z,10.90
2022-08-17T02:09:18.012Z,9.73
2022-08-17T02:11:45.339Z,10.73
2022-08-17T02:14:13.381Z,10.87
2022-08-17T02:16:41.385Z,10.00
2022-08-17T02:19:12.163Z,22.83
2022-08-17T02:21:40.555Z,11.17
2022-08-17T02:24:10.901Z,14.30
2022-08-17T02:26:37.792Z,10.80
2022-08-17T02:29:04.830Z,9.50
2022-08-17T02:31:31.972Z,9.77
2022-08-17T02:34:03.874Z,10.60
2022-08-17T02:36:33.896Z,12.17
2022-08-17T02:39:10.280Z,11.03
2022-08-17T02:41:37.605Z,11.67
2022-08-17T02:44:05.839Z,11.57
2022-08-17T02:46:32.775Z,11.10
2022-08-17T02:48:59.940Z,11.57
2022-08-17T02:51:27.303Z,9.93
2022-08-17T02:54:35.575Z,13.30
2022-08-17T02:56:41.032Z,10.93
2022-08-17T02:59:07.824Z,13.03
2022-08-17T03:01:34.765Z,10.93
2022-08-17T03:04:01.541Z,11.17
2022-08-17T03:06:29.224Z,10.80
2022-08-17T03:08:55.948Z,10.73
2022-08-17T03:11:23.553Z,10.63
2022-08-17T03:13:50.411Z,12.43
2022-08-17T03:16:17.179Z,13.23
2022-08-17T03:18:44.065Z,10.77
2022-08-17T03:21:11.025Z,9.00
2022-08-17T03:23:41.098Z,13.03
2022-08-17T03:26:12.300Z,9.40
2022-08-17T03:28:42.735Z,10.83
2022-08-17T03:31:09.677Z,12.30
2022-08-17T03:33:36.433Z,12.40
2022-08-17T03:36:03.482Z,11.60
2022-08-17T03:38:30.394Z,10.83
2022-08-17T03:41:07.197Z,11.53
2022-08-17T03:43:34.647Z,10.77
2022-08-17T03:46:29.040Z,12.90
2022-08-17T03:49:25.872Z,10.80
2022-08-17T03:52:12.502Z,10.57
2022-08-17T03:54:58.763Z,10.60
2022-08-17T03:57:26.034Z,13.00
2022-08-17T03:59:54.504Z,11.13
2022-08-17T04:02:30.087Z,12.10
2022-08-17T04:04:57.360Z,10.10
2022-08-17T04:07:27.511Z,11.30
2022-08-17T04:09:54.346Z,11.13
2022-08-17T04:12:23.135Z,12.53
2022-08-17T04:14:53.124Z,15.10
2022-08-17T04:17:27.934Z,11.10
2022-08-17T04:19:55.771Z,11.30
2022-08-17T04:22:30.292Z,11.83
2022-08-17T04:25:01.759Z,12.23
2022-08-17T04:27:28.512Z,12.40
2022-08-17T04:29:56.097Z,12.37
2022-08-17T04:33:03.383Z,12.33
2022-08-17T04:35:10.228Z,10.33
2022-08-17T04:37:37.008Z,12.70
2022-08-17T04:40:23.075Z,14.60
2022-08-17T04:43:03.945Z,11.73
2022-08-17T04:45:32.243Z,12.93
2022-08-17T04:48:00.228Z,11.20
2022-08-17T04:50:27.603Z,11.70
2022-08-17T04:52:54.544Z,11.90
2022-08-17T04:55:21.695Z,13.23
2022-08-17T04:57:48.472Z,15.23
2022-08-17T05:00:15.519Z,10.73
2022-08-17T05:02:50.729Z,14.70
2022-08-17T05:05:27.255Z,11.17
2022-08-17T05:07:57.918Z,11.50
2022-08-17T05:10:26.317Z,13.33
2022-08-17T05:13:01.074Z,11.83
2022-08-17T05:15:29.296Z,11.90
2022-08-17T05:18:00.316Z,12.10
2022-08-17T05:20:27.517Z,13.00
2022-08-17T05:22:59.605Z,15.30
2022-08-17T05:25:29.845Z,13.10
2022-08-17T05:27:59.760Z,12.60
2022-08-17T05:30:28.968Z,12.97
2022-08-17T05:33:11.132Z,18.03
2022-08-17T05:35:40.135Z,12.00
2022-08-17T05:38:08.252Z,13.30
2022-08-17T05:40:36.388Z,12.17
2022-08-17T05:43:33.915Z,13.27
2022-08-17T05:46:06.645Z,13.32
2022-08-17T05:48:42.251Z,13.03
2022-08-17T05:51:27.601Z,12.83
2022-08-17T05:54:24.812Z,13.87
2022-08-17T05:57:03.537Z,12.17
2022-08-17T05:59:44.541Z,14.00
2022-08-17T06:02:24.465Z,13.33
2022-08-17T06:05:00.029Z,11.53
2022-08-17T06:07:38.891Z,11.60
2022-08-17T06:10:20.983Z,13.13
2022-08-17T06:13:08.968Z,9.70
2022-08-17T06:16:31.145Z,9.93
2022-08-17T06:19:06.870Z,13.77
2022-08-17T06:21:38.792Z,10.83
2022-08-17T06:24:24.168Z,12.70
2022-08-17T06:26:52.199Z,10.30
2022-08-17T06:29:31.023Z,13.93
2022-08-17T06:31:57.771Z,11.20
2022-08-17T06:34:24.600Z,11.33
2022-08-17T06:37:00.326Z,16.83
2022-08-17T06:39:35.995Z,11.87
2022-08-17T06:42:54.116Z,9.63
2022-08-17T06:45:35.854Z,12.50
2022-08-17T06:48:10.139Z,9.43
2022-08-17T06:50:47.049Z,10.17
2022-08-17T06:53:32.848Z,16.53
2022-08-17T06:56:10.050Z,26.63
2022-08-17T06:58:40.207Z,17.10
2022-08-17T07:01:19.139Z,15.60
2022-08-17T07:04:11.779Z,9.30
2022-08-17T07:06:52.383Z,12.30
2022-08-17T07:09:28.136Z,12.93
2022-08-17T07:12:22.235Z,15.43
2022-08-17T07:15:01.028Z,13.60
2022-08-17T07:17:46.620Z,11.57
2022-08-17T07:20:22.646Z,12.30
2022-08-17T07:23:00.453Z,9.70
2022-08-17T07:25:28.511Z,21.80
2022-08-17T07:28:00.237Z,12.40
2022-08-17T07:30:47.604Z,9.57
2022-08-17T07:33:30.071Z,10.17
2022-08-17T07:35:58.062Z,9.37
2022-08-17T07:38:31.156Z,10.00
2022-08-17T07:40:58.220Z,14.10
2022-08-17T07:43:31.814Z,11.30
2022-08-17T07:46:17.902Z,8.17
2022-08-17T07:48:52.226Z,8.93
2022-08-17T07:51:30.304Z,7.70
2022-08-17T07:54:22.221Z,9.63
2022-08-17T07:56:54.971Z,7.13
2022-08-17T07:59:34.095Z,10.33
2022-08-17T08:02:05.225Z,6.43
2022-08-17T08:04:59.849Z,6.37
2022-08-17T08:07:35.196Z,5.20
2022-08-17T08:10:09.269Z,7.20
2022-08-17T08:12:47.636Z,6.80
2022-08-17T08:15:23.725Z,7.00
2022-08-17T08:17:56.522Z,5.40
2022-08-17T08:20:53.888Z,5.00
2022-08-17T08:23:53.742Z,8.67
2022-08-17T08:26:35.529Z,5.93
2022-08-17T08:29:08.312Z,4.90
2022-08-17T08:32:03.430Z,7.37
2022-08-17T08:35:07.680Z,6.37
2022-08-17T08:37:51.424Z,7.20
2022-08-17T08:40:32.829Z,6.67
2022-08-17T08:43:03.859Z,4.20
2022-08-17T08:45:50.743Z,4.93
2022-08-17T08:48:56.640Z,9.40
2022-08-17T08:52:12.750Z,4.40
2022-08-17T08:54:56.660Z,8.00
2022-08-17T08:57:34.171Z,5.50
2022-08-17T09:00:21.235Z,21.93
2022-08-17T09:03:14.479Z,6.70
2022-08-17T09:06:06.733Z,8.37
2022-08-17T09:09:15.554Z,5.47
2022-08-17T09:12:02.779Z,5.17
2022-08-17T09:15:10.833Z,6.10
2022-08-17T09:17:49.523Z,10.10
2022-08-17T09:20:36.909Z,66.17
2022-08-17T09:23:09.865Z,5.30
2022-08-17T09:26:02.942Z,6.13
2022-08-17T09:28:35.121Z,8.17
2022-08-17T09:31:11.588Z,5.53
2022-08-17T09:33:44.744Z,6.03
2022-08-17T09:36:11.500Z,4.40
2022-08-17T09:39:15.015Z,5.10
2022-08-17T09:42:00.524Z,5.63
2022-08-17T09:44:36.176Z,7.43
2022-08-17T09:47:22.560Z,7.23
2022-08-17T09:49:56.353Z,5.37
2022-08-17T09:52:26.399Z,5.57
2022-08-17T09:54:55.695Z,7.33
2022-08-17T09:57:43.230Z,5.87
2022-08-17T10:00:25.107Z,6.10
2022-08-17T10:03:16.741Z,8.40
2022-08-17T10:06:00.240Z,6.50
2022-08-17T10:08:51.915Z,7.00
2022-08-17T10:12:04.381Z,7.57
2022-08-17T10:15:08.084Z,7.90
2022-08-17T10:17:45.432Z,11.00
2022-08-17T10:20:15.199Z,8.10
2022-08-17T10:23:19.636Z,8.10
2022-08-17T10:26:14.699Z,6.80
2022-08-17T10:28:44.384Z,7.50
2022-08-17T10:31:34.289Z,10.73
2022-08-17T10:34:20.667Z,7.60
2022-08-17T10:36:50.440Z,7.97
2022-08-17T10:39:33.413Z,8.23
2022-08-17T10:42:15.638Z,9.80
2022-08-17T10:45:29.431Z,7.53
2022-08-17T10:48:06.143Z,9.83
2022-08-17T10:50:49.686Z,8.57
2022-08-17T10:53:31.877Z,12.03
2022-08-17T10:56:13.783Z,9.70
2022-08-17T10:58:57.194Z,10.60
2022-08-17T11:01:33.114Z,10.70
2022-08-17T11:04:30.581Z,11.57
2022-08-17T11:07:14.666Z,16.70
2022-08-17T11:09:50.262Z,22.90
2022-08-17T11:12:45.840Z,9.00
2022-08-17T11:15:23.804Z,12.73
2022-08-17T11:18:01.418Z,10.70
2022-08-17T11:20:52.633Z,14.80
2022-08-17T11:23:19.656Z,10.80
2022-08-17T11:25:53.090Z,12.13
2022-08-17T11:28:25.283Z,14.97
2022-08-17T11:30:56.240Z,11.50
2022-08-17T11:33:29.179Z,11.37
2022-08-17T11:36:19.095Z,10.60
2022-08-17T11:39:07.430Z,16.70
2022-08-17T11:42:19.990Z,10.63
2022-08-17T11:45:00.664Z,14.20
2022-08-17T11:48:27.930Z,17.63
2022-08-17T11:51:25.430Z,11.80
2022-08-17T11:54:14.678Z,11.57
2022-08-17T11:56:49.912Z,13.23
2022-08-17T11:59:39.459Z,15.40
2022-08-17T12:02:35.230Z,12.27
2022-08-17T12:05:26.110Z,14.37
2022-08-17T12:08:19.724Z,17.70
2022-08-17T12:11:06.364Z,19.37
2022-08-17T12:13:45.183Z,13.13
2022-08-17T12:16:20.097Z,15.17
2022-08-17T12:18:58.569Z,16.87
2022-08-17T12:21:45.009Z,15.43
2022-08-17T12:24:25.582Z,18.47
2022-08-17T12:27:01.037Z,18.33
2022-08-17T12:29:38.387Z,19.57
2022-08-17T12:32:07.098Z,18.53
2022-08-17T12:34:39.831Z,21.77
2022-08-17T12:37:23.098Z,23.77
2022-08-17T12:40:06.454Z,25.07
2022-08-17T12:42:37.463Z,21.90
2022-08-17T12:45:22.624Z,20.70
2022-08-17T12:47:59.010Z,19.87
2022-08-17T12:50:28.266Z,21.80
2022-08-17T12:53:01.619Z,18.90
2022-08-17T12:55:32.561Z,18.47
2022-08-17T12:58:01.970Z,20.30
2022-08-17T13:00:33.712Z,19.73
2022-08-17T13:03:22.551Z,20.03
2022-08-17T13:05:52.367Z,21.33
2022-08-17T13:08:27.984Z,17.87
2022-08-17T13:11:03.638Z,19.37
2022-08-17T13:13:36.987Z,21.73
2022-08-17T13:16:11.338Z,25.23
2022-08-17T13:19:04.775Z,21.67
2022-08-17T13:21:33.203Z,21.27
2022-08-17T13:24:13.667Z,21.70
2022-08-17T13:27:01.403Z,21.90
2022-08-17T13:29:38.924Z,22.47
2022-08-17T13:32:08.501Z,19.80
2022-08-17T13:35:12.648Z,16.80
2022-08-17T13:37:36.178Z,22.40
2022-08-17T13:40:11.968Z,23.57
2022-08-17T13:42:52.931Z,19.80
2022-08-17T13:45:35.563Z,18.50
2022-08-17T13:48:12.427Z,22.93
2022-08-17T13:50:59.556Z,20.17
2022-08-17T13:53:33.593Z,20.90
2022-08-17T13:56:34.951Z,19.70
2022-08-17T13:59:52.792Z,21.23
2022-08-17T14:02:19.180Z,20.50
2022-08-17T14:04:47.654Z,21.57
2022-08-17T14:07:15.947Z,20.83
2022-08-17T14:09:55.623Z,23.67
2022-08-17T14:12:26.123Z,20.60
2022-08-17T14:14:54.971Z,20.23
2022-08-17T14:17:23.006Z,20.67
2022-08-17T14:19:50.973Z,24.17
2022-08-17T14:22:26.981Z,20.83
2022-08-17T14:24:54.159Z,23.67
2022-08-17T14:27:21.820Z,24.50
2022-08-17T14:29:48.729Z,25.10
2022-08-17T14:32:32.053Z,23.83
2022-08-17T14:34:59.970Z,23.83
2022-08-17T14:37:28.497Z,25.80
2022-08-17T14:40:01.460Z,24.37
2022-08-17T14:42:31.331Z,26.43
2022-08-17T14:44:59.460Z,25.87
2022-08-17T14:47:26.692Z,22.87
2022-08-17T14:49:53.743Z,24.60
2022-08-17T14:52:21.790Z,24.90
2022-08-17T14:54:52.837Z,21.80
2022-08-17T14:57:26.178Z,27.00
2022-08-17T15:00:01.881Z,28.17
2022-08-17T15:02:30.896Z,34.97
2022-08-17T15:05:05.766Z,31.97
2022-08-17T15:07:32.604Z,31.47
2022-08-17T15:10:01.495Z,32.30
2022-08-17T15:12:33.067Z,33.70
2022-08-17T15:15:01.055Z,34.17
2022-08-17T15:17:43.882Z,33.70
2022-08-17T15:20:17.674Z,32.70
2022-08-17T15:22:45.817Z,34.07
2022-08-17T15:25:14.224Z,32.33
2022-08-17T15:27:41.615Z,33.20
2022-08-17T15:30:09.993Z,34.63
2022-08-17T15:32:40.838Z,37.57
2022-08-17T15:35:11.719Z,37.03
2022-08-17T15:37:40.162Z,34.47
2022-08-17T15:40:09.085Z,33.70
2022-08-17T15:42:36.642Z,34.10
2022-08-17T15:45:10.411Z,33.30
2022-08-17T15:47:37.531Z,30.73
2022-08-17T15:50:07.123Z,31.70
2022-08-17T15:52:40.102Z,30.60
2022-08-17T15:55:10.195Z,30.53
2022-08-17T15:57:37.152Z,29.80
2022-08-17T16:00:06.006Z,27.53
2022-08-17T16:03:15.106Z,29.70
2022-08-17T16:05:25.093Z,26.87
2022-08-17T16:07:53.008Z,26.07
2022-08-17T16:10:21.023Z,22.20
2022-08-17T16:12:49.654Z,22.77
2022-08-17T16:15:17.604Z,23.80
2022-08-17T16:17:44.427Z,23.73
2022-08-17T16:20:20.161Z,22.87
2022-08-17T16:22:50.214Z,30.27
2022-08-17T16:25:22.256Z,28.90
2022-08-17T16:27:53.600Z,34.30
2022-08-17T16:30:23.891Z,38.43
2022-08-17T16:32:53.013Z,36.83
2022-08-17T16:35:22.583Z,37.40
2022-08-17T16:37:49.403Z,43.07
2022-08-17T16:40:17.583Z,40.33
2022-08-17T16:42:48.334Z,40.03
2022-08-17T16:45:26.900Z,38.70
2022-08-17T16:47:54.911Z,41.57
2022-08-17T16:50:23.792Z,41.33
2022-08-17T16:52:51.339Z,41.63
2022-08-17T16:55:21.515Z,41.57
2022-08-17T16:57:50.353Z,39.97
2022-08-17T17:00:19.564Z,36.90
2022-08-17T17:02:48.212Z,36.40
2022-08-17T17:05:42.967Z,35.07
2022-08-17T17:08:25.542Z,36.67
2022-08-17T17:10:55.878Z,39.93
2022-08-17T17:13:36.674Z,39.30
2022-08-17T17:16:29.234Z,36.83
2022-08-17T17:19:07.697Z,36.50
2022-08-17T17:21:49.087Z,35.60
2022-08-17T17:24:47.123Z,34.60
2022-08-17T17:27:32.176Z,39.23
2022-08-17T17:30:15.226Z,38.10
2022-08-17T17:32:46.211Z,39.23
2022-08-17T17:35:57.506Z,35.03
2022-08-17T17:38:29.916Z,39.83
2022-08-17T17:41:06.776Z,37.63
2022-08-17T17:43:41.100Z,35.97
2022-08-17T17:46:28.330Z,35.13
2022-08-17T17:48:57.177Z,35.47
2022-08-17T17:52:06.928Z,36.13
2022-08-17T17:55:06.191Z,32.97
2022-08-17T17:57:32.953Z,33.70
2022-08-17T18:00:31.665Z,34.90
2022-08-17T18:03:16.727Z,31.60
2022-08-17T18:06:08.136Z,32.47
2022-08-17T18:08:49.212Z,30.63
2022-08-17T18:11:34.852Z,30.47
2022-08-17T18:14:17.227Z,31.27
2022-08-17T18:16:53.145Z,31.37
2022-08-17T18:19:20.784Z,32.73
2022-08-17T18:22:03.171Z,33.37
2022-08-17T18:24:33.815Z,33.47
2022-08-17T18:27:08.597Z,34.57
2022-08-17T18:29:46.921Z,33.63
2022-08-17T18:32:13.629Z,31.20
2022-08-17T18:34:48.697Z,27.53
2022-08-17T18:37:37.790Z,36.80
2022-08-17T18:40:17.068Z,34.93
2022-08-17T18:43:03.010Z,34.00
2022-08-17T18:45:40.973Z,31.60
2022-08-17T18:48:27.189Z,32.83
2022-08-17T18:51:01.483Z,32.50
2022-08-17T18:53:36.217Z,29.70
2022-08-17T18:56:37.419Z,31.23
2022-08-17T18:59:11.494Z,30.13
2022-08-17T19:01:52.338Z,32.10
2022-08-17T19:05:07.283Z,29.50
2022-08-17T19:07:40.704Z,28.33
2022-08-17T19:10:23.102Z,30.27
2022-08-17T19:13:12.705Z,33.63
2022-08-17T19:16:11.821Z,30.03
2022-08-17T19:19:05.871Z,31.60
2022-08-17T19:21:44.054Z,30.43
2022-08-17T19:24:23.402Z,30.47
2022-08-17T19:27:06.226Z,30.73
2022-08-17T19:29:42.933Z,31.57
2022-08-17T19:32:11.250Z,32.43
2022-08-17T19:34:39.645Z,31.17
2022-08-17T19:37:33.818Z,32.80
2022-08-17T19:40:24.477Z,30.10
2022-08-17T19:43:07.536Z,33.00
2022-08-17T19:45:45.141Z,32.90
2022-08-17T19:48:39.046Z,35.23
2022-08-17T19:51:15.543Z,33.00
2022-08-17T19:54:24.720Z,30.90
2022-08-17T19:57:18.277Z,31.50
2022-08-17T19:59:56.848Z,30.33
2022-08-17T20:02:47.390Z,31.33
2022-08-17T20:06:08.489Z,30.23
2022-08-17T20:08:31.483Z,30.77
2022-08-17T20:11:15.053Z,30.33
2022-08-17T20:13:46.530Z,31.70
2022-08-17T20:16:13.391Z,30.40
2022-08-17T20:18:47.634Z,31.27
2022-08-17T20:21:20.760Z,30.17
2022-08-17T20:23:47.528Z,30.87
2022-08-17T20:26:34.258Z,30.13
2022-08-17T20:29:16.733Z,31.10
2022-08-17T20:31:57.445Z,28.70
2022-08-17T20:34:33.634Z,31.03
2022-08-17T20:37:06.152Z,27.63
2022-08-17T20:39:43.067Z,29.23
2022-08-17T20:42:21.498Z,26.63
2022-08-17T20:44:51.498Z,27.00
2022-08-17T20:47:50.422Z,27.13
2022-08-17T20:50:33.496Z,29.40
2022-08-17T20:53:06.698Z,27.43
2022-08-17T20:55:39.322Z,28.27
2022-08-17T20:58:23.019Z,28.80
2022-08-17T21:01:14.516Z,28.50
2022-08-17T21:03:51.218Z,31.67
2022-08-17T21:06:21.173Z,28.17
2022-08-17T21:08:53.972Z,28.17
2022-08-17T21:12:02.945Z,28.43
2022-08-17T21:14:59.695Z,31.53
2022-08-17T21:17:48.962Z,28.90
2022-08-17T21:20:24.568Z,29.20
2022-08-17T21:23:27.263Z,28.97
2022-08-17T21:26:17.367Z,31.37
2022-08-17T21:29:30.860Z,29.47
2022-08-17T21:31:59.736Z,31.13
2022-08-17T21:34:39.335Z,30.17
2022-08-17T21:37:23.716Z,29.87
2022-08-17T21:40:22.771Z,30.90
2022-08-17T21:42:58.155Z,26.93
2022-08-17T21:45:36.667Z,29.27
2022-08-17T21:48:20.843Z,28.67
2022-08-17T21:50:59.092Z,32.37
2022-08-17T21:53:33.318Z,32.53
2022-08-17T21:56:00.742Z,39.10
2022-08-17T21:58:33.568Z,34.87
2022-08-17T22:01:38.933Z,37.30
2022-08-17T22:04:19.949Z,34.87
2022-08-17T22:06:54.204Z,36.20
2022-08-17T22:09:25.953Z,34.67
2022-08-17T22:12:20.029Z,32.03
2022-08-17T22:15:05.887Z,29.23
2022-08-17T22:17:36.435Z,30.80
2022-08-17T22:20:14.421Z,29.57
2022-08-17T22:23:08.831Z,30.00
2022-08-17T22:25:38.666Z,27.30
2022-08-17T22:28:10.773Z,28.80
2022-08-17T22:31:00.996Z,32.50
2022-08-17T22:33:39.521Z,32.20
2022-08-17T22:36:35.313Z,34.90
2022-08-17T22:39:26.185Z,32.10
2022-08-17T22:41:57.087Z,33.77
2022-08-17T22:44:36.368Z,34.03
2022-08-17T22:47:03.179Z,30.27
2022-08-17T22:49:32.769Z,29.17
2022-08-17T22:52:06.407Z,27.40
2022-08-17T22:54:52.517Z,29.60
2022-08-17T22:57:41.788Z,30.63
2022-08-17T23:00:47.388Z,32.70
2022-08-17T23:03:23.173Z,31.40
2022-08-17T23:06:08.292Z,30.77
2022-08-17T23:08:48.697Z,30.73
2022-08-17T23:11:15.661Z,30.07
2022-08-17T23:13:42.415Z,30.23
2022-08-17T23:16:09.226Z,28.47
2022-08-17T23:18:37.470Z,29.17
2022-08-17T23:21:05.647Z,28.77
2022-08-17T23:23:32.381Z,29.90
2022-08-17T23:25:59.100Z,30.40
2022-08-17T23:28:25.956Z,31.70
2022-08-17T23:30:52.719Z,33.27
2022-08-17T23:33:25.535Z,30.40
2022-08-17T23:35:53.710Z,33.70
2022-08-17T23:38:20.514Z,31.43
2022-08-17T23:40:47.236Z,33.83
2022-08-17T23:43:24.677Z,31.47
2022-08-17T23:45:54.219Z,31.27
2022-08-17T23:48:35.678Z,31.20
2022-08-17T23:51:14.441Z,31.13
2022-08-17T23:53:47.515Z,31.67
2022-08-17T23:56:15.227Z,32.20
2022-08-17T23:58:43.444Z,31.67
